sensor_id;sensor_type;location;lat;lon;timestamp;P1;durP1;ratioP1;P2;durP2;ratioP2
51527;SDS011;37612;51.768;21.590;2023-04-15T00:01:27;12.10;;;6.90;;
51527;SDS011;37612;51.768;21.590;2023-04-15T00:05:30;9.50;;;6.70;;
51527;SDS011;37612;51.768;21.590;2023-04-15T00:09:33;10.40;;;7.70;;
51527;SDS011;37612;51.768;21.590;2023-04-15T00:13:34;12.80;;;8.20;;
51527;SDS011;37612;51.768;21.590;2023-04-15T00:17:37;11.90;;;7.30;;
51527;SDS011;37612;51.768;21.590;2023-04-15T00:21:40;14.00;;;8.50;;
51527;SDS011;37612;51.768;21.590;2023-04-15T00:25:42;11.50;;;8.30;;
51527;SDS011;37612;51.768;21.590;2023-04-15T00:29:44;12.40;;;8.00;;
51527;SDS011;37612;51.768;21.590;2023-04-15T00:33:46;9.80;;;7.20;;
51527;SDS011;37612;51.768;21.590;2023-04-15T00:37:48;12.10;;;7.60;;
51527;SDS011;37612;51.768;21.590;2023-04-15T00:41:50;12.40;;;8.40;;
51527;SDS011;37612;51.768;21.590;2023-04-15T00:45:52;11.80;;;8.30;;
51527;SDS011;37612;51.768;21.590;2023-04-15T00:49:56;11.20;;;8.60;;
51527;SDS011;37612;51.768;21.590;2023-04-15T00:54:18;11.10;;;8.20;;
51527;SDS011;37612;51.768;21.590;2023-04-15T00:58:20;15.10;;;9.20;;
51527;SDS011;37612;51.768;21.590;2023-04-15T01:02:22;14.50;;;8.40;;
51527;SDS011;37612;51.768;21.590;2023-04-15T01:06:25;12.50;;;8.30;;
51527;SDS011;37612;51.768;21.590;2023-04-15T01:10:28;13.20;;;9.70;;
51527;SDS011;37612;51.768;21.590;2023-04-15T01:14:30;14.70;;;10.80;;
51527;SDS011;37612;51.768;21.590;2023-04-15T01:22:34;16.70;;;10.00;;
51527;SDS011;37612;51.768;21.590;2023-04-15T01:26:37;16.40;;;11.30;;
51527;SDS011;37612;51.768;21.590;2023-04-15T01:30:39;13.90;;;9.50;;
51527;SDS011;37612;51.768;21.590;2023-04-15T01:34:41;14.00;;;9.80;;
51527;SDS011;37612;51.768;21.590;2023-04-15T01:38:43;15.80;;;10.50;;
51527;SDS011;37612;51.768;21.590;2023-04-15T01:42:45;14.00;;;10.00;;
51527;SDS011;37612;51.768;21.590;2023-04-15T01:46:47;15.50;;;10.90;;
51527;SDS011;37612;51.768;21.590;2023-04-15T01:50:49;17.40;;;11.20;;
51527;SDS011;37612;51.768;21.590;2023-04-15T01:54:52;16.20;;;11.10;;
51527;SDS011;37612;51.768;21.590;2023-04-15T01:58:54;16.80;;;10.60;;
51527;SDS011;37612;51.768;21.590;2023-04-15T02:02:56;17.00;;;11.60;;
51527;SDS011;37612;51.768;21.590;2023-04-15T02:06:58;16.60;;;11.40;;
51527;SDS011;37612;51.768;21.590;2023-04-15T02:15:02;18.70;;;12.10;;
51527;SDS011;37612;51.768;21.590;2023-04-15T02:19:05;21.10;;;12.50;;
51527;SDS011;37612;51.768;21.590;2023-04-15T02:23:08;18.20;;;12.10;;
51527;SDS011;37612;51.768;21.590;2023-04-15T02:27:10;18.00;;;11.60;;
51527;SDS011;37612;51.768;21.590;2023-04-15T02:31:16;20.90;;;13.30;;
51527;SDS011;37612;51.768;21.590;2023-04-15T02:35:18;16.40;;;11.60;;
51527;SDS011;37612;51.768;21.590;2023-04-15T02:39:21;39.70;;;20.60;;
51527;SDS011;37612;51.768;21.590;2023-04-15T02:43:23;18.50;;;12.90;;
51527;SDS011;37612;51.768;21.590;2023-04-15T02:47:25;20.50;;;11.80;;
51527;SDS011;37612;51.768;21.590;2023-04-15T02:51:29;17.80;;;12.00;;
51527;SDS011;37612;51.768;21.590;2023-04-15T02:55:32;15.30;;;11.50;;
51527;SDS011;37612;51.768;21.590;2023-04-15T02:59:34;14.50;;;10.70;;
51527;SDS011;37612;51.768;21.590;2023-04-15T03:03:36;16.40;;;11.40;;
51527;SDS011;37612;51.768;21.590;2023-04-15T03:07:38;14.60;;;9.30;;
51527;SDS011;37612;51.768;21.590;2023-04-15T03:11:41;18.10;;;11.90;;
51527;SDS011;37612;51.768;21.590;2023-04-15T03:15:46;17.20;;;11.90;;
51527;SDS011;37612;51.768;21.590;2023-04-15T03:19:49;14.50;;;11.20;;
51527;SDS011;37612;51.768;21.590;2023-04-15T03:23:51;15.30;;;11.50;;
51527;SDS011;37612;51.768;21.590;2023-04-15T03:27:53;13.20;;;10.10;;
51527;SDS011;37612;51.768;21.590;2023-04-15T03:31:55;13.00;;;9.50;;
51527;SDS011;37612;51.768;21.590;2023-04-15T03:35:57;12.90;;;10.80;;
51527;SDS011;37612;51.768;21.590;2023-04-15T03:39:59;14.70;;;10.10;;
51527;SDS011;37612;51.768;21.590;2023-04-15T03:44:01;15.20;;;10.30;;
51527;SDS011;37612;51.768;21.590;2023-04-15T03:48:03;14.10;;;10.70;;
51527;SDS011;37612;51.768;21.590;2023-04-15T03:52:05;15.70;;;11.10;;
51527;SDS011;37612;51.768;21.590;2023-04-15T03:56:08;12.50;;;8.90;;
51527;SDS011;37612;51.768;21.590;2023-04-15T04:00:10;13.50;;;10.20;;
51527;SDS011;37612;51.768;21.590;2023-04-15T04:04:12;13.40;;;9.60;;
51527;SDS011;37612;51.768;21.590;2023-04-15T04:08:13;14.90;;;11.10;;
51527;SDS011;37612;51.768;21.590;2023-04-15T04:12:16;15.10;;;10.00;;
51527;SDS011;37612;51.768;21.590;2023-04-15T04:16:18;12.30;;;9.40;;
51527;SDS011;37612;51.768;21.590;2023-04-15T04:24:23;14.00;;;10.00;;
51527;SDS011;37612;51.768;21.590;2023-04-15T04:28:25;14.10;;;10.00;;
51527;SDS011;37612;51.768;21.590;2023-04-15T04:36:29;21.30;;;15.30;;
51527;SDS011;37612;51.768;21.590;2023-04-15T04:40:32;14.10;;;10.50;;
51527;SDS011;37612;51.768;21.590;2023-04-15T04:48:36;15.60;;;10.60;;
51527;SDS011;37612;51.768;21.590;2023-04-15T04:52:38;14.30;;;10.50;;
51527;SDS011;37612;51.768;21.590;2023-04-15T04:56:40;13.70;;;9.90;;
51527;SDS011;37612;51.768;21.590;2023-04-15T05:00:42;14.30;;;10.10;;
51527;SDS011;37612;51.768;21.590;2023-04-15T05:04:44;15.90;;;10.30;;
51527;SDS011;37612;51.768;21.590;2023-04-15T05:08:46;11.40;;;8.20;;
51527;SDS011;37612;51.768;21.590;2023-04-15T05:16:51;15.80;;;11.20;;
51527;SDS011;37612;51.768;21.590;2023-04-15T05:20:53;13.30;;;10.70;;
51527;SDS011;37612;51.768;21.590;2023-04-15T05:24:55;14.10;;;9.70;;
51527;SDS011;37612;51.768;21.590;2023-04-15T05:28:57;13.00;;;9.30;;
51527;SDS011;37612;51.768;21.590;2023-04-15T05:32:59;12.20;;;8.70;;
51527;SDS011;37612;51.768;21.590;2023-04-15T05:37:01;15.60;;;9.90;;
51527;SDS011;37612;51.768;21.590;2023-04-15T05:41:03;13.30;;;9.80;;
51527;SDS011;37612;51.768;21.590;2023-04-15T05:45:06;15.90;;;11.10;;
51527;SDS011;37612;51.768;21.590;2023-04-15T05:49:09;16.70;;;9.10;;
51527;SDS011;37612;51.768;21.590;2023-04-15T05:53:11;16.80;;;10.90;;
51527;SDS011;37612;51.768;21.590;2023-04-15T05:57:13;12.80;;;9.50;;
51527;SDS011;37612;51.768;21.590;2023-04-15T06:01:16;13.70;;;9.90;;
51527;SDS011;37612;51.768;21.590;2023-04-15T06:05:18;13.10;;;9.90;;
51527;SDS011;37612;51.768;21.590;2023-04-15T06:09:20;14.70;;;10.30;;
51527;SDS011;37612;51.768;21.590;2023-04-15T06:13:22;13.20;;;9.60;;
51527;SDS011;37612;51.768;21.590;2023-04-15T06:17:24;14.30;;;10.10;;
51527;SDS011;37612;51.768;21.590;2023-04-15T06:21:26;16.20;;;9.60;;
51527;SDS011;37612;51.768;21.590;2023-04-15T06:25:28;17.50;;;10.00;;
51527;SDS011;37612;51.768;21.590;2023-04-15T06:29:30;14.40;;;10.60;;
51527;SDS011;37612;51.768;21.590;2023-04-15T06:33:32;14.10;;;11.20;;
51527;SDS011;37612;51.768;21.590;2023-04-15T06:37:34;24.30;;;17.30;;
51527;SDS011;37612;51.768;21.590;2023-04-15T06:41:36;10.00;;;8.50;;
51527;SDS011;37612;51.768;21.590;2023-04-15T06:45:38;13.70;;;9.20;;
51527;SDS011;37612;51.768;21.590;2023-04-15T06:49:40;8.80;;;7.50;;
51527;SDS011;37612;51.768;21.590;2023-04-15T06:53:43;12.80;;;8.40;;
51527;SDS011;37612;51.768;21.590;2023-04-15T06:57:45;7.10;;;6.10;;
51527;SDS011;37612;51.768;21.590;2023-04-15T07:01:47;7.20;;;5.30;;
51527;SDS011;37612;51.768;21.590;2023-04-15T07:05:49;8.30;;;5.90;;
51527;SDS011;37612;51.768;21.590;2023-04-15T07:09:51;8.40;;;6.00;;
51527;SDS011;37612;51.768;21.590;2023-04-15T07:13:54;8.30;;;6.40;;
51527;SDS011;37612;51.768;21.590;2023-04-15T07:17:56;8.00;;;6.10;;
51527;SDS011;37612;51.768;21.590;2023-04-15T07:21:58;6.90;;;5.90;;
51527;SDS011;37612;51.768;21.590;2023-04-15T07:26:00;8.50;;;5.70;;
51527;SDS011;37612;51.768;21.590;2023-04-15T07:30:02;7.20;;;6.00;;
51527;SDS011;37612;51.768;21.590;2023-04-15T07:34:05;7.80;;;5.10;;
51527;SDS011;37612;51.768;21.590;2023-04-15T07:38:08;10.00;;;6.50;;
51527;SDS011;37612;51.768;21.590;2023-04-15T07:42:10;7.70;;;6.80;;
51527;SDS011;37612;51.768;21.590;2023-04-15T07:46:12;6.80;;;5.20;;
51527;SDS011;37612;51.768;21.590;2023-04-15T07:50:13;5.40;;;4.30;;
51527;SDS011;37612;51.768;21.590;2023-04-15T07:54:16;7.20;;;5.80;;
51527;SDS011;37612;51.768;21.590;2023-04-15T08:02:20;6.60;;;4.90;;
51527;SDS011;37612;51.768;21.590;2023-04-15T08:06:22;6.50;;;4.00;;
51527;SDS011;37612;51.768;21.590;2023-04-15T08:10:25;5.20;;;4.40;;
51527;SDS011;37612;51.768;21.590;2023-04-15T08:14:27;4.60;;;4.10;;
51527;SDS011;37612;51.768;21.590;2023-04-15T08:18:29;5.20;;;4.40;;
51527;SDS011;37612;51.768;21.590;2023-04-15T08:22:32;5.80;;;4.30;;
51527;SDS011;37612;51.768;21.590;2023-04-15T08:30:36;4.30;;;3.60;;
51527;SDS011;37612;51.768;21.590;2023-04-15T08:34:38;3.90;;;3.40;;
51527;SDS011;37612;51.768;21.590;2023-04-15T08:38:40;6.20;;;3.40;;
51527;SDS011;37612;51.768;21.590;2023-04-15T08:42:45;5.30;;;4.00;;
51527;SDS011;37612;51.768;21.590;2023-04-15T08:46:49;4.60;;;4.80;;
51527;SDS011;37612;51.768;21.590;2023-04-15T08:50:52;5.40;;;3.60;;
51527;SDS011;37612;51.768;21.590;2023-04-15T08:54:56;4.50;;;3.30;;
51527;SDS011;37612;51.768;21.590;2023-04-15T08:59:02;5.10;;;4.10;;
51527;SDS011;37612;51.768;21.590;2023-04-15T09:03:06;8.10;;;4.20;;
51527;SDS011;37612;51.768;21.590;2023-04-15T09:07:09;4.90;;;3.70;;
51527;SDS011;37612;51.768;21.590;2023-04-15T09:11:10;4.80;;;3.30;;
51527;SDS011;37612;51.768;21.590;2023-04-15T09:15:12;5.30;;;3.00;;
51527;SDS011;37612;51.768;21.590;2023-04-15T09:19:20;6.60;;;4.30;;
51527;SDS011;37612;51.768;21.590;2023-04-15T09:23:23;5.70;;;4.40;;
51527;SDS011;37612;51.768;21.590;2023-04-15T09:27:26;4.90;;;4.40;;
51527;SDS011;37612;51.768;21.590;2023-04-15T09:31:28;5.50;;;4.20;;
51527;SDS011;37612;51.768;21.590;2023-04-15T09:35:32;5.10;;;4.10;;
51527;SDS011;37612;51.768;21.590;2023-04-15T09:39:49;5.70;;;2.80;;
51527;SDS011;37612;51.768;21.590;2023-04-15T09:43:55;5.00;;;3.90;;
51527;SDS011;37612;51.768;21.590;2023-04-15T09:47:58;3.90;;;2.10;;
51527;SDS011;37612;51.768;21.590;2023-04-15T09:52:06;4.60;;;2.80;;
51527;SDS011;37612;51.768;21.590;2023-04-15T09:56:08;5.20;;;3.10;;
51527;SDS011;37612;51.768;21.590;2023-04-15T10:00:11;6.20;;;3.80;;
51527;SDS011;37612;51.768;21.590;2023-04-15T10:04:14;4.30;;;3.40;;
51527;SDS011;37612;51.768;21.590;2023-04-15T10:08:21;4.80;;;3.30;;
51527;SDS011;37612;51.768;21.590;2023-04-15T10:12:25;3.80;;;2.90;;
51527;SDS011;37612;51.768;21.590;2023-04-15T10:16:29;2.40;;;1.90;;
51527;SDS011;37612;51.768;21.590;2023-04-15T10:20:41;3.60;;;2.20;;
51527;SDS011;37612;51.768;21.590;2023-04-15T10:24:43;2.40;;;1.90;;
51527;SDS011;37612;51.768;21.590;2023-04-15T10:28:51;4.30;;;1.50;;
51527;SDS011;37612;51.768;21.590;2023-04-15T10:33:06;3.10;;;1.90;;
51527;SDS011;37612;51.768;21.590;2023-04-15T10:37:19;3.20;;;1.50;;
51527;SDS011;37612;51.768;21.590;2023-04-15T10:41:24;2.20;;;1.60;;
51527;SDS011;37612;51.768;21.590;2023-04-15T10:45:33;1.50;;;1.40;;
51527;SDS011;37612;51.768;21.590;2023-04-15T10:49:44;1.50;;;1.10;;
51527;SDS011;37612;51.768;21.590;2023-04-15T10:53:53;2.00;;;1.30;;
51527;SDS011;37612;51.768;21.590;2023-04-15T10:58:01;5.10;;;4.30;;
51527;SDS011;37612;51.768;21.590;2023-04-15T11:02:04;3.60;;;2.00;;
51527;SDS011;37612;51.768;21.590;2023-04-15T11:06:08;3.40;;;1.40;;
51527;SDS011;37612;51.768;21.590;2023-04-15T11:14:29;2.80;;;1.70;;
51527;SDS011;37612;51.768;21.590;2023-04-15T11:18:31;3.40;;;1.40;;
51527;SDS011;37612;51.768;21.590;2023-04-15T11:22:33;2.40;;;1.20;;
51527;SDS011;37612;51.768;21.590;2023-04-15T11:26:45;2.10;;;1.30;;
51527;SDS011;37612;51.768;21.590;2023-04-15T11:34:53;2.10;;;1.50;;
51527;SDS011;37612;51.768;21.590;2023-04-15T11:38:56;3.60;;;1.90;;
51527;SDS011;37612;51.768;21.590;2023-04-15T11:47:23;6.30;;;3.80;;
51527;SDS011;37612;51.768;21.590;2023-04-15T11:51:25;8.30;;;5.50;;
51527;SDS011;37612;51.768;21.590;2023-04-15T11:55:27;7.40;;;3.60;;
51527;SDS011;37612;51.768;21.590;2023-04-15T11:59:40;5.40;;;2.70;;
51527;SDS011;37612;51.768;21.590;2023-04-15T12:03:46;4.00;;;1.40;;
51527;SDS011;37612;51.768;21.590;2023-04-15T12:07:59;3.20;;;0.90;;
51527;SDS011;37612;51.768;21.590;2023-04-15T12:12:01;1.20;;;0.80;;
51527;SDS011;37612;51.768;21.590;2023-04-15T12:16:11;1.20;;;0.70;;
51527;SDS011;37612;51.768;21.590;2023-04-15T12:20:13;2.70;;;0.90;;
51527;SDS011;37612;51.768;21.590;2023-04-15T12:24:21;0.90;;;0.80;;
51527;SDS011;37612;51.768;21.590;2023-04-15T12:32:25;1.90;;;1.10;;
51527;SDS011;37612;51.768;21.590;2023-04-15T12:36:29;1.10;;;0.60;;
51527;SDS011;37612;51.768;21.590;2023-04-15T12:40:36;1.50;;;0.90;;
51527;SDS011;37612;51.768;21.590;2023-04-15T12:44:46;0.60;;;0.40;;
51527;SDS011;37612;51.768;21.590;2023-04-15T12:48:49;0.50;;;0.50;;
51527;SDS011;37612;51.768;21.590;2023-04-15T12:52:53;3.00;;;0.90;;
51527;SDS011;37612;51.768;21.590;2023-04-15T12:56:55;1.30;;;0.70;;
51527;SDS011;37612;51.768;21.590;2023-04-15T13:00:58;2.50;;;0.90;;
51527;SDS011;37612;51.768;21.590;2023-04-15T13:05:00;1.50;;;0.90;;
51527;SDS011;37612;51.768;21.590;2023-04-15T13:09:02;1.40;;;0.80;;
51527;SDS011;37612;51.768;21.590;2023-04-15T13:13:05;2.10;;;1.10;;
51527;SDS011;37612;51.768;21.590;2023-04-15T13:17:07;1.40;;;0.80;;
51527;SDS011;37612;51.768;21.590;2023-04-15T13:21:22;1.00;;;0.70;;
51527;SDS011;37612;51.768;21.590;2023-04-15T13:25:25;1.20;;;1.10;;
51527;SDS011;37612;51.768;21.590;2023-04-15T13:29:27;1.30;;;0.70;;
51527;SDS011;37612;51.768;21.590;2023-04-15T13:33:30;14.30;;;5.10;;
51527;SDS011;37612;51.768;21.590;2023-04-15T13:37:33;1.30;;;0.90;;
51527;SDS011;37612;51.768;21.590;2023-04-15T13:41:39;1.60;;;1.00;;
51527;SDS011;37612;51.768;21.590;2023-04-15T13:45:59;2.60;;;1.10;;
51527;SDS011;37612;51.768;21.590;2023-04-15T13:50:01;1.80;;;0.70;;
51527;SDS011;37612;51.768;21.590;2023-04-15T13:54:03;1.20;;;0.70;;
51527;SDS011;37612;51.768;21.590;2023-04-15T13:58:08;1.60;;;0.80;;
51527;SDS011;37612;51.768;21.590;2023-04-15T14:02:13;1.90;;;1.10;;
51527;SDS011;37612;51.768;21.590;2023-04-15T14:06:19;1.10;;;0.90;;
51527;SDS011;37612;51.768;21.590;2023-04-15T14:10:21;1.00;;;0.70;;
51527;SDS011;37612;51.768;21.590;2023-04-15T14:14:24;0.90;;;0.60;;
51527;SDS011;37612;51.768;21.590;2023-04-15T14:18:28;1.80;;;0.70;;
51527;SDS011;37612;51.768;21.590;2023-04-15T14:22:31;1.70;;;0.40;;
51527;SDS011;37612;51.768;21.590;2023-04-15T14:26:32;1.10;;;0.70;;
51527;SDS011;37612;51.768;21.590;2023-04-15T14:30:34;0.70;;;0.50;;
51527;SDS011;37612;51.768;21.590;2023-04-15T14:34:36;1.40;;;0.90;;
51527;SDS011;37612;51.768;21.590;2023-04-15T14:38:38;2.20;;;1.00;;
51527;SDS011;37612;51.768;21.590;2023-04-15T14:42:40;1.70;;;1.00;;
51527;SDS011;37612;51.768;21.590;2023-04-15T14:46:42;0.70;;;0.60;;
51527;SDS011;37612;51.768;21.590;2023-04-15T14:50:44;1.50;;;0.90;;
51527;SDS011;37612;51.768;21.590;2023-04-15T14:58:48;1.10;;;0.90;;
51527;SDS011;37612;51.768;21.590;2023-04-15T15:02:50;2.10;;;1.10;;
51527;SDS011;37612;51.768;21.590;2023-04-15T15:06:52;3.10;;;1.10;;
51527;SDS011;37612;51.768;21.590;2023-04-15T15:10:55;1.40;;;0.60;;
51527;SDS011;37612;51.768;21.590;2023-04-15T15:14:57;1.40;;;1.00;;
51527;SDS011;37612;51.768;21.590;2023-04-15T15:19:00;1.20;;;0.80;;
51527;SDS011;37612;51.768;21.590;2023-04-15T15:23:02;1.60;;;0.90;;
51527;SDS011;37612;51.768;21.590;2023-04-15T15:27:05;1.70;;;1.50;;
51527;SDS011;37612;51.768;21.590;2023-04-15T15:31:06;1.90;;;1.00;;
51527;SDS011;37612;51.768;21.590;2023-04-15T15:35:09;1.10;;;0.90;;
51527;SDS011;37612;51.768;21.590;2023-04-15T15:39:12;1.00;;;0.70;;
51527;SDS011;37612;51.768;21.590;2023-04-15T15:43:19;1.90;;;0.90;;
51527;SDS011;37612;51.768;21.590;2023-04-15T15:51:42;1.30;;;0.90;;
51527;SDS011;37612;51.768;21.590;2023-04-15T15:55:44;1.20;;;1.10;;
51527;SDS011;37612;51.768;21.590;2023-04-15T15:59:45;2.60;;;1.10;;
51527;SDS011;37612;51.768;21.590;2023-04-15T16:03:47;3.10;;;1.40;;
51527;SDS011;37612;51.768;21.590;2023-04-15T16:07:51;2.10;;;1.50;;
51527;SDS011;37612;51.768;21.590;2023-04-15T16:15:57;2.50;;;1.70;;
51527;SDS011;37612;51.768;21.590;2023-04-15T16:19:59;2.00;;;1.70;;
51527;SDS011;37612;51.768;21.590;2023-04-15T16:24:08;2.00;;;1.40;;
51527;SDS011;37612;51.768;21.590;2023-04-15T16:28:11;1.60;;;0.90;;
51527;SDS011;37612;51.768;21.590;2023-04-15T16:32:13;1.70;;;0.90;;
51527;SDS011;37612;51.768;21.590;2023-04-15T16:36:15;2.30;;;1.20;;
51527;SDS011;37612;51.768;21.590;2023-04-15T16:40:17;14.90;;;13.50;;
51527;SDS011;37612;51.768;21.590;2023-04-15T16:44:19;6.20;;;2.80;;
51527;SDS011;37612;51.768;21.590;2023-04-15T16:48:21;1.60;;;1.00;;
51527;SDS011;37612;51.768;21.590;2023-04-15T16:52:23;0.90;;;0.70;;
51527;SDS011;37612;51.768;21.590;2023-04-15T16:56:25;6.60;;;5.70;;
51527;SDS011;37612;51.768;21.590;2023-04-15T17:00:27;2.40;;;1.40;;
51527;SDS011;37612;51.768;21.590;2023-04-15T17:04:30;1.30;;;1.00;;
51527;SDS011;37612;51.768;21.590;2023-04-15T17:08:32;2.30;;;1.10;;
51527;SDS011;37612;51.768;21.590;2023-04-15T17:12:34;4.80;;;2.70;;
51527;SDS011;37612;51.768;21.590;2023-04-15T17:16:36;1.40;;;0.80;;
51527;SDS011;37612;51.768;21.590;2023-04-15T17:20:38;10.50;;;5.50;;
51527;SDS011;37612;51.768;21.590;2023-04-15T17:24:40;1.90;;;1.30;;
51527;SDS011;37612;51.768;21.590;2023-04-15T17:28:44;3.50;;;1.90;;
51527;SDS011;37612;51.768;21.590;2023-04-15T17:32:46;1.50;;;0.90;;
51527;SDS011;37612;51.768;21.590;2023-04-15T17:36:49;2.20;;;1.30;;
51527;SDS011;37612;51.768;21.590;2023-04-15T17:40:53;1.70;;;0.90;;
51527;SDS011;37612;51.768;21.590;2023-04-15T17:44:55;1.80;;;0.80;;
51527;SDS011;37612;51.768;21.590;2023-04-15T17:48:58;1.20;;;0.70;;
51527;SDS011;37612;51.768;21.590;2023-04-15T17:52:59;3.80;;;1.20;;
51527;SDS011;37612;51.768;21.590;2023-04-15T17:57:01;2.60;;;1.20;;
51527;SDS011;37612;51.768;21.590;2023-04-15T18:01:03;2.80;;;1.20;;
51527;SDS011;37612;51.768;21.590;2023-04-15T18:05:05;2.90;;;1.40;;
51527;SDS011;37612;51.768;21.590;2023-04-15T18:13:10;2.50;;;1.10;;
51527;SDS011;37612;51.768;21.590;2023-04-15T18:17:12;1.40;;;1.00;;
51527;SDS011;37612;51.768;21.590;2023-04-15T18:21:19;4.20;;;2.00;;
51527;SDS011;37612;51.768;21.590;2023-04-15T18:25:21;4.50;;;2.40;;
51527;SDS011;37612;51.768;21.590;2023-04-15T18:29:23;3.50;;;2.10;;
51527;SDS011;37612;51.768;21.590;2023-04-15T18:33:26;3.40;;;1.50;;
51527;SDS011;37612;51.768;21.590;2023-04-15T18:37:28;4.40;;;2.10;;
51527;SDS011;37612;51.768;21.590;2023-04-15T18:41:30;4.70;;;2.30;;
51527;SDS011;37612;51.768;21.590;2023-04-15T18:45:32;18.40;;;6.80;;
51527;SDS011;37612;51.768;21.590;2023-04-15T18:49:35;5.00;;;2.50;;
51527;SDS011;37612;51.768;21.590;2023-04-15T18:53:37;11.40;;;5.30;;
51527;SDS011;37612;51.768;21.590;2023-04-15T18:57:39;20.40;;;8.20;;
51527;SDS011;37612;51.768;21.590;2023-04-15T19:01:44;13.80;;;5.90;;
51527;SDS011;37612;51.768;21.590;2023-04-15T19:05:49;4.20;;;2.40;;
51527;SDS011;37612;51.768;21.590;2023-04-15T19:09:51;3.30;;;2.00;;
51527;SDS011;37612;51.768;21.590;2023-04-15T19:13:54;2.60;;;1.70;;
51527;SDS011;37612;51.768;21.590;2023-04-15T19:21:59;4.80;;;2.10;;
51527;SDS011;37612;51.768;21.590;2023-04-15T19:26:08;3.50;;;2.10;;
51527;SDS011;37612;51.768;21.590;2023-04-15T19:30:17;4.80;;;2.00;;
51527;SDS011;37612;51.768;21.590;2023-04-15T19:34:22;2.80;;;1.90;;
51527;SDS011;37612;51.768;21.590;2023-04-15T19:38:35;3.00;;;2.00;;
51527;SDS011;37612;51.768;21.590;2023-04-15T19:42:38;3.50;;;2.30;;
51527;SDS011;37612;51.768;21.590;2023-04-15T19:46:55;3.90;;;2.60;;
51527;SDS011;37612;51.768;21.590;2023-04-15T19:51:12;2.80;;;1.80;;
51527;SDS011;37612;51.768;21.590;2023-04-15T19:55:42;3.00;;;2.20;;
51527;SDS011;37612;51.768;21.590;2023-04-15T20:00:29;4.10;;;2.20;;
51527;SDS011;37612;51.768;21.590;2023-04-15T20:04:40;3.30;;;2.20;;
51527;SDS011;37612;51.768;21.590;2023-04-15T20:09:13;3.70;;;2.10;;
51527;SDS011;37612;51.768;21.590;2023-04-15T20:13:38;3.70;;;2.20;;
51527;SDS011;37612;51.768;21.590;2023-04-15T20:18:02;3.20;;;2.30;;
51527;SDS011;37612;51.768;21.590;2023-04-15T20:22:12;3.30;;;2.10;;
51527;SDS011;37612;51.768;21.590;2023-04-15T20:26:15;5.00;;;2.30;;
51527;SDS011;37612;51.768;21.590;2023-04-15T20:30:18;3.40;;;2.30;;
51527;SDS011;37612;51.768;21.590;2023-04-15T20:34:21;5.40;;;2.60;;
51527;SDS011;37612;51.768;21.590;2023-04-15T20:38:33;3.20;;;2.30;;
51527;SDS011;37612;51.768;21.590;2023-04-15T20:42:37;3.40;;;2.40;;
51527;SDS011;37612;51.768;21.590;2023-04-15T20:46:41;3.80;;;2.50;;
51527;SDS011;37612;51.768;21.590;2023-04-15T20:50:45;2.90;;;2.20;;
51527;SDS011;37612;51.768;21.590;2023-04-15T20:54:51;3.30;;;2.20;;
51527;SDS011;37612;51.768;21.590;2023-04-15T20:58:54;4.70;;;3.20;;
51527;SDS011;37612;51.768;21.590;2023-04-15T21:02:56;3.60;;;2.70;;
51527;SDS011;37612;51.768;21.590;2023-04-15T21:06:57;3.30;;;2.50;;
51527;SDS011;37612;51.768;21.590;2023-04-15T21:10:59;5.30;;;3.30;;
51527;SDS011;37612;51.768;21.590;2023-04-15T21:15:11;5.50;;;2.80;;
51527;SDS011;37612;51.768;21.590;2023-04-15T21:19:13;11.00;;;5.10;;
51527;SDS011;37612;51.768;21.590;2023-04-15T21:23:15;7.80;;;3.80;;
51527;SDS011;37612;51.768;21.590;2023-04-15T21:27:17;43.50;;;14.90;;
51527;SDS011;37612;51.768;21.590;2023-04-15T21:31:22;21.40;;;7.70;;
51527;SDS011;37612;51.768;21.590;2023-04-15T21:35:24;6.80;;;3.80;;
51527;SDS011;37612;51.768;21.590;2023-04-15T21:39:46;12.10;;;5.00;;
51527;SDS011;37612;51.768;21.590;2023-04-15T21:43:55;4.30;;;3.50;;
51527;SDS011;37612;51.768;21.590;2023-04-15T21:48:06;3.60;;;3.00;;
51527;SDS011;37612;51.768;21.590;2023-04-15T21:52:49;5.60;;;3.40;;
51527;SDS011;37612;51.768;21.590;2023-04-15T21:57:04;3.50;;;2.80;;
51527;SDS011;37612;51.768;21.590;2023-04-15T22:01:31;6.60;;;3.20;;
51527;SDS011;37612;51.768;21.590;2023-04-15T22:06:07;5.40;;;3.60;;
51527;SDS011;37612;51.768;21.590;2023-04-15T22:11:19;5.10;;;3.30;;
51527;SDS011;37612;51.768;21.590;2023-04-15T22:16:28;5.50;;;3.70;;
51527;SDS011;37612;51.768;21.590;2023-04-15T22:20:37;5.90;;;3.50;;
51527;SDS011;37612;51.768;21.590;2023-04-15T22:24:49;4.00;;;3.10;;
51527;SDS011;37612;51.768;21.590;2023-04-15T22:29:26;5.00;;;3.90;;
51527;SDS011;37612;51.768;21.590;2023-04-15T22:38:34;4.90;;;3.50;;
51527;SDS011;37612;51.768;21.590;2023-04-15T22:43:05;8.00;;;4.00;;
51527;SDS011;37612;51.768;21.590;2023-04-15T22:47:15;7.90;;;4.60;;
51527;SDS011;37612;51.768;21.590;2023-04-15T22:51:58;6.00;;;3.90;;
51527;SDS011;37612;51.768;21.590;2023-04-15T22:55:59;6.20;;;4.40;;
51527;SDS011;37612;51.768;21.590;2023-04-15T23:00:02;7.30;;;4.40;;
51527;SDS011;37612;51.768;21.590;2023-04-15T23:04:05;7.40;;;4.90;;
51527;SDS011;37612;51.768;21.590;2023-04-15T23:08:08;10.90;;;5.10;;
51527;SDS011;37612;51.768;21.590;2023-04-15T23:12:10;10.40;;;5.10;;
51527;SDS011;37612;51.768;21.590;2023-04-15T23:16:12;10.50;;;4.80;;
51527;SDS011;37612;51.768;21.590;2023-04-15T23:20:14;5.80;;;4.50;;
51527;SDS011;37612;51.768;21.590;2023-04-15T23:24:16;7.20;;;5.50;;
51527;SDS011;37612;51.768;21.590;2023-04-15T23:28:18;5.70;;;4.30;;
51527;SDS011;37612;51.768;21.590;2023-04-15T23:32:22;7.50;;;5.10;;
51527;SDS011;37612;51.768;21.590;2023-04-15T23:36:24;6.70;;;4.70;;
51527;SDS011;37612;51.768;21.590;2023-04-15T23:40:29;6.40;;;5.10;;
51527;SDS011;37612;51.768;21.590;2023-04-15T23:44:31;6.50;;;4.60;;
51527;SDS011;37612;51.768;21.590;2023-04-15T23:48:32;6.60;;;5.70;;
51527;SDS011;37612;51.768;21.590;2023-04-15T23:52:35;7.50;;;4.30;;
51527;SDS011;37612;51.768;21.590;2023-04-15T23:56:37;8.60;;;5.60;;
